Time;durP1;ratioP1;P1;durP2;ratioP2;P2;SDS_P1;SDS_P2;PMS_P1;PMS_P2;Temp;Humidity;BMP_temperature;BMP_pressure;BME280_temperature;BME280_humidity;BME280_pressure;Samples;Min_cycle;Max_cycle;Signal;HPM_P1;HPM_P2
2021/04/14 00:00:31;;;;;;;6.18;3.78;;;4.20;83.80;;;;;;5011211;28;20509;-60
2021/04/14 00:02:57;;;;;;;5.60;3.63;;;4.20;84.10;;;;;;5032689;28;20073;-57
2021/04/14 00:05:25;;;;;;;7.30;4.57;;;4.20;84.00;;;;;;5016167;28;20042;-59
2021/04/14 00:07:50;;;;;;;7.57;4.00;;;4.00;84.50;;;;;;5030952;28;20034;-62
2021/04/14 00:10:25;;;;;;;7.45;4.30;;;4.00;85.00;;;;;;5021711;28;20130;-59
2021/04/14 00:12:51;;;;;;;;;;;4.00;85.10;;;;;;5014716;28;20092;-56
2021/04/14 00:15:22;;;;;;;9.90;4.47;;;4.00;85.50;;;;;;5022252;28;19909;-59
2021/04/14 00:17:47;;;;;;;6.13;4.70;;;3.80;86.20;;;;;;5030659;28;20080;-58
2021/04/14 00:20:14;;;;;;;7.78;4.20;;;3.90;86.20;;;;;;5024517;28;20064;-58
2021/04/14 00:22:39;;;;;;;8.88;4.63;;;3.60;87.10;;;;;;5018021;28;20038;-56
2021/04/14 00:25:06;;;;;;;7.97;4.15;;;3.50;87.50;;;;;;5045408;28;20037;-58
2021/04/14 00:27:35;;;;;;;9.43;5.53;;;3.60;87.60;;;;;;5031544;28;20037;-57
2021/04/14 00:30:02;;;;;;;9.55;4.45;;;3.50;87.60;;;;;;5025738;28;20056;-56
2021/04/14 00:32:28;;;;;;;8.10;4.07;;;3.40;88.30;;;;;;5033731;28;20040;-57
2021/04/14 00:34:53;;;;;;;6.28;4.10;;;3.20;89.00;;;;;;5020219;28;20125;-56
2021/04/14 00:37:19;;;;;;;12.45;4.70;;;3.30;88.90;;;;;;5050917;28;20065;-58
2021/04/14 00:39:44;;;;;;;8.00;4.60;;;3.40;88.70;;;;;;5039479;28;20044;-57
2021/04/14 00:42:10;;;;;;;8.20;4.75;;;3.40;88.60;;;;;;5015473;28;20040;-57
2021/04/14 00:44:36;;;;;;;6.40;4.45;;;3.50;88.20;;;;;;5028174;28;20045;-58
2021/04/14 00:47:01;;;;;;;6.47;4.38;;;3.70;87.70;;;;;;5029715;28;20038;-56
2021/04/14 00:49:28;;;;;;;11.65;5.45;;;3.40;88.20;;;;;;5026932;28;20072;-58
2021/04/14 00:51:54;;;;;;;8.77;4.82;;;3.50;88.40;;;;;;5042682;28;20052;-57
2021/04/14 00:54:19;;;;;;;7.95;4.55;;;3.60;88.40;;;;;;5042394;28;20097;-57
2021/04/14 00:56:45;;;;;;;8.02;4.95;;;3.50;88.20;;;;;;5021232;28;20065;-58
2021/04/14 00:59:10;;;;;;;7.88;4.88;;;3.50;88.30;;;;;;5038231;28;20066;-56
2021/04/14 01:01:36;;;;;;;9.10;5.13;;;3.60;87.90;;;;;;5050031;28;20037;-57
2021/04/14 01:04:02;;;;;;;7.38;4.63;;;3.50;88.20;;;;;;5028758;28;20029;-60
2021/04/14 01:06:28;;;;;;;10.38;5.25;;;3.70;87.40;;;;;;5038453;28;20040;-59
2021/04/14 01:08:55;;;;;;;9.63;4.80;;;3.60;87.80;;;;;;5036997;28;20034;-58
2021/04/14 01:11:24;;;;;;;9.05;5.18;;;3.70;88.00;;;;;;5024974;28;20045;-58
2021/04/14 01:13:49;;;;;;;10.00;5.50;;;3.70;87.00;;;;;;5014045;28;20034;-57
2021/04/14 01:16:15;;;;;;;10.18;5.20;;;3.60;87.80;;;;;;5037650;28;20056;-58
2021/04/14 01:18:41;;;;;;;12.65;5.45;;;3.40;88.60;;;;;;5038110;28;20437;-58
2021/04/14 01:21:11;;;;;;;8.73;5.20;;;3.40;88.80;;;;;;5016246;28;20401;-58
2021/04/14 01:23:37;;;;;;;7.57;5.43;;;3.30;88.70;;;;;;5028351;28;20094;-58
2021/04/14 01:26:04;;;;;;;7.88;4.88;;;3.50;88.20;;;;;;5034073;28;20505;-57
2021/04/14 01:28:38;;;;;;;7.95;5.13;;;3.50;88.20;;;;;;5028612;28;20022;-58
2021/04/14 01:31:10;;;;;;;9.38;5.03;;;3.30;88.70;;;;;;5036238;28;20140;-56
2021/04/14 01:33:36;;;;;;;6.80;5.13;;;3.20;89.20;;;;;;5015758;28;20083;-59
2021/04/14 01:36:04;;;;;;;10.50;5.82;;;3.30;88.90;;;;;;5034158;28;20175;-59
2021/04/14 01:38:30;;;;;;;9.40;5.25;;;3.30;89.00;;;;;;5035251;28;20030;-57
2021/04/14 01:40:57;;;;;;;8.68;4.78;;;3.20;89.60;;;;;;5032482;28;20056;-57
2021/04/14 01:43:23;;;;;;;7.68;4.57;;;3.30;88.90;;;;;;5033235;28;20567;-59
2021/04/14 01:45:49;;;;;;;8.98;5.50;;;3.10;89.80;;;;;;5032531;28;20030;-57
2021/04/14 01:48:16;;;;;;;9.23;5.55;;;3.10;89.90;;;;;;5033384;28;20034;-61
2021/04/14 01:50:42;;;;;;;8.52;5.20;;;3.30;89.20;;;;;;5033047;28;20065;-58
2021/04/14 01:53:11;;;;;;;9.57;4.75;;;3.20;89.10;;;;;;5034175;28;20065;-59
2021/04/14 01:55:37;;;;;;;6.93;4.70;;;3.20;89.40;;;;;;5032489;28;20033;-58
2021/04/14 01:58:04;;;;;;;5.35;4.25;;;3.30;88.90;;;;;;5034659;28;20443;-57
2021/04/14 02:00:36;;;;;;;10.27;5.40;;;3.40;88.60;;;;;;5032002;28;20072;-58
2021/04/14 02:03:03;;;;;;;11.18;5.75;;;3.20;89.20;;;;;;5034500;28;20428;-59
2021/04/14 02:05:31;;;;;;;8.13;5.10;;;3.00;89.90;;;;;;5038275;28;20400;-58
2021/04/14 02:07:58;;;;;;;10.40;4.75;;;3.10;90.10;;;;;;5017895;28;20432;-59
2021/04/14 02:10:26;;;;;;;6.80;4.57;;;3.30;89.30;;;;;;5034086;28;20060;-57
2021/04/14 02:12:52;;;;;;;14.88;5.60;;;3.00;90.10;;;;;;5043249;28;20040;-57
2021/04/14 02:15:22;;;;;;;9.10;5.30;;;3.10;89.90;;;;;;5022025;28;20041;-60
2021/04/14 02:17:47;;;;;;;10.02;4.80;;;3.10;90.00;;;;;;5022091;28;20046;-57
2021/04/14 02:20:14;;;;;;;9.15;5.68;;;3.20;89.60;;;;;;5021645;28;20067;-60
2021/04/14 02:22:40;;;;;;;7.75;4.55;;;3.20;89.80;;;;;;5012723;28;20038;-60
2021/04/14 02:25:07;;;;;;;9.48;4.28;;;3.20;90.00;;;;;;5026867;28;20489;-56
2021/04/14 02:27:33;;;;;;;12.57;5.30;;;3.30;89.70;;;;;;5019415;28;20045;-59
2021/04/14 02:29:59;;;;;;;7.95;5.03;;;3.40;89.30;;;;;;5026258;28;20068;-59
2021/04/14 02:32:25;;;;;;;9.68;5.07;;;3.40;89.20;;;;;;5021169;28;20112;-60
2021/04/14 02:34:50;;;;;;;8.07;4.75;;;3.20;89.70;;;;;;5044006;28;20438;-57
2021/04/14 02:37:19;;;;;;;8.18;4.95;;;3.10;90.00;;;;;;5029465;28;20042;-59
2021/04/14 02:39:44;;;;;;;13.25;5.88;;;2.90;90.60;;;;;;5030998;28;20029;-58
2021/04/14 02:42:10;;;;;;;9.13;5.53;;;2.70;91.00;;;;;;5036320;28;20060;-59
2021/04/14 02:44:36;;;;;;;10.75;5.43;;;2.90;90.70;;;;;;5025072;28;20072;-58
2021/04/14 02:47:01;;;;;;;10.27;5.55;;;3.00;90.30;;;;;;5030241;28;20037;-59
2021/04/14 02:49:27;;;;;;;9.52;5.38;;;3.20;90.10;;;;;;5012295;28;20144;-59
2021/04/14 02:51:53;;;;;;;11.38;5.57;;;3.20;89.80;;;;;;5054686;28;20033;-57
2021/04/14 02:54:20;;;;;;;8.30;5.32;;;3.10;90.30;;;;;;5015596;28;20030;-59
2021/04/14 02:56:45;;;;;;;8.75;5.32;;;3.00;90.50;;;;;;5024315;28;20404;-58
2021/04/14 02:59:11;;;;;;;11.52;5.70;;;3.10;90.30;;;;;;5027787;28;20037;-56
2021/04/14 03:01:37;;;;;;;11.10;4.65;;;3.20;90.20;;;;;;5015460;28;20042;-58
2021/04/14 03:04:02;;;;;;;8.50;5.28;;;3.20;89.90;;;;;;5016801;28;20044;-58
2021/04/14 03:06:28;;;;;;;10.45;5.53;;;3.20;90.10;;;;;;5026537;28;20030;-58
2021/04/14 03:08:53;;;;;;;9.20;5.63;;;3.20;90.00;;;;;;5012945;28;20033;-57
2021/04/14 03:11:19;;;;;;;10.82;5.80;;;3.10;90.10;;;;;;5029122;28;20393;-62
2021/04/14 03:13:45;;;;;;;9.75;5.55;;;2.90;90.70;;;;;;5012218;28;20450;-59
2021/04/14 03:16:11;;;;;;;12.48;5.60;;;3.00;90.40;;;;;;5019057;28;20030;-58
2021/04/14 03:18:36;;;;;;;16.20;5.63;;;3.00;90.40;;;;;;5025197;28;20042;-58
2021/04/14 03:21:02;;;;;;;12.48;5.80;;;3.00;90.40;;;;;;5021489;28;20121;-56
2021/04/14 03:23:28;;;;;;;8.52;5.90;;;2.80;90.90;;;;;;5017231;28;20042;-56
2021/04/14 03:25:54;;;;;;;11.75;5.75;;;2.70;91.10;;;;;;5020434;28;20559;-59
2021/04/14 03:28:19;;;;;;;11.40;6.75;;;2.80;90.90;;;;;;5037478;28;20128;-57
2021/04/14 03:30:45;;;;;;;11.68;6.50;;;2.70;90.90;;;;;;5020797;28;20026;-56
2021/04/14 03:33:12;;;;;;;13.80;5.70;;;2.70;91.00;;;;;;5022628;28;20026;-58
2021/04/14 03:35:38;;;;;;;12.45;6.60;;;2.80;90.90;;;;;;5020016;28;20041;-58
2021/04/14 03:38:04;;;;;;;15.98;6.88;;;2.70;90.90;;;;;;5031665;28;20029;-59
2021/04/14 03:40:30;;;;;;;10.50;6.18;;;2.80;90.90;;;;;;5012542;28;20026;-59
2021/04/14 03:42:57;;;;;;;13.25;6.47;;;2.80;90.80;;;;;;5023298;28;20093;-58
2021/04/14 03:45:30;;;;;;;13.32;5.68;;;2.70;90.90;;;;;;5017747;28;20053;-58
2021/04/14 03:47:56;;;;;;;10.75;6.00;;;2.80;90.90;;;;;;5021505;28;20121;-57
2021/04/14 03:50:23;;;;;;;13.40;6.20;;;2.80;90.90;;;;;;5028610;28;20037;-57
2021/04/14 03:52:49;;;;;;;13.10;6.10;;;2.90;90.80;;;;;;5023034;28;20026;-58
2021/04/14 03:55:18;;;;;;;10.88;6.18;;;2.90;90.70;;;;;;5024765;28;20044;-58
2021/04/14 03:57:44;;;;;;;12.20;6.78;;;2.70;91.20;;;;;;5023691;28;20037;-55
2021/04/14 04:00:13;;;;;;;12.57;7.57;;;2.70;91.20;;;;;;5035651;28;20037;-57
2021/04/14 04:02:39;;;;;;;19.15;6.85;;;2.70;91.10;;;;;;5023423;28;20084;-56
2021/04/14 04:05:05;;;;;;;11.32;6.93;;;2.60;91.40;;;;;;5039023;28;20037;-58
2021/04/14 04:07:31;;;;;;;12.88;6.97;;;2.60;91.40;;;;;;5019953;28;20037;-58
2021/04/14 04:09:56;;;;;;;13.18;7.60;;;2.50;91.40;;;;;;5015127;28;20025;-56
2021/04/14 04:12:22;;;;;;;15.05;6.95;;;2.60;91.60;;;;;;5023192;28;20042;-56
2021/04/14 04:14:50;;;;;;;10.15;6.15;;;2.60;91.30;;;;;;5019451;28;20045;-56
2021/04/14 04:17:17;;;;;;;15.35;7.28;;;2.60;91.60;;;;;;5044523;28;20110;-58
2021/04/14 04:19:43;;;;;;;17.45;7.97;;;2.60;91.30;;;;;;5034018;28;20053;-57
2021/04/14 04:22:12;;;;;;;14.02;7.53;;;2.60;91.30;;;;;;5026222;28;20037;-60
2021/04/14 04:24:37;;;;;;;12.77;7.32;;;2.60;91.30;;;;;;5029365;28;20117;-59
2021/04/14 04:27:03;;;;;;;13.65;7.68;;;2.50;91.70;;;;;;5015114;28;20612;-57
2021/04/14 04:29:29;;;;;;;19.95;7.35;;;2.50;91.70;;;;;;5035158;28;20040;-59
2021/04/14 04:31:54;;;;;;;13.35;7.28;;;2.60;91.20;;;;;;5022222;28;20388;-57
2021/04/14 04:34:20;;;;;;;15.25;8.05;;;2.60;91.40;;;;;;5032729;28;20030;-58
2021/04/14 04:36:49;;;;;;;15.77;7.70;;;2.50;91.50;;;;;;5018033;28;20053;-58
2021/04/14 04:39:15;;;;;;;16.50;7.68;;;2.50;91.60;;;;;;5033835;28;20070;-61
2021/04/14 04:41:40;;;;;;;18.20;7.82;;;2.30;92.30;;;;;;5037576;28;20060;-59
2021/04/14 04:44:06;;;;;;;25.70;7.78;;;2.40;92.10;;;;;;5028014;28;20486;-55
2021/04/14 04:46:31;;;;;;;15.85;7.55;;;2.50;91.60;;;;;;5033136;28;20047;-61
2021/04/14 04:48:57;;;;;;;15.70;7.68;;;2.70;91.50;;;;;;5000667;28;20080;-57
2021/04/14 04:51:23;;;;;;;18.10;6.97;;;2.70;91.30;;;;;;5054380;28;20362;-56
2021/04/14 04:53:48;;;;;;;12.88;7.30;;;2.70;91.20;;;;;;5027618;28;20030;-57
2021/04/14 04:56:16;;;;;;;14.20;7.95;;;2.30;92.00;;;;;;5025291;28;20034;-58
2021/04/14 04:58:42;;;;;;;13.23;7.85;;;2.20;92.30;;;;;;5013565;28;20034;-59
2021/04/14 05:01:08;;;;;;;19.27;8.77;;;2.30;92.30;;;;;;5055158;28;20494;-59
2021/04/14 05:03:34;;;;;;;17.50;7.40;;;2.30;92.30;;;;;;5028417;28;20042;-59
2021/04/14 05:06:01;;;;;;;17.02;8.43;;;2.20;92.40;;;;;;5033707;28;20493;-59
2021/04/14 05:08:27;;;;;;;18.35;7.80;;;2.20;92.40;;;;;;5024562;28;20568;-60
2021/04/14 05:10:54;;;;;;;20.13;7.63;;;2.40;92.10;;;;;;5034132;28;20183;-59
2021/04/14 05:13:20;;;;;;;19.02;7.57;;;2.50;92.00;;;;;;5014058;28;20109;-60
2021/04/14 05:15:47;;;;;;;20.63;8.38;;;2.60;91.70;;;;;;5030880;28;20126;-58
2021/04/14 05:18:13;;;;;;;14.48;8.85;;;2.60;91.60;;;;;;5028162;28;20095;-58
2021/04/14 05:20:39;;;;;;;14.63;8.20;;;2.50;92.00;;;;;;5023709;28;20030;-56
2021/04/14 05:23:06;;;;;;;17.95;8.02;;;2.50;92.00;;;;;;5013900;28;20110;-58
2021/04/14 05:25:40;;;;;;;15.00;7.28;;;2.60;91.60;;;;;;5029647;28;20033;-58
2021/04/14 05:28:11;;;;;;;18.05;7.40;;;2.80;91.60;;;;;;5022217;28;20057;-58
2021/04/14 05:30:38;;;;;;;18.55;8.13;;;3.00;91.00;;;;;;5036858;28;20021;-58
2021/04/14 05:33:06;;;;;;;18.52;7.32;;;2.90;91.30;;;;;;5024926;28;20025;-59
2021/04/14 05:35:32;;;;;;;12.63;7.68;;;3.00;91.10;;;;;;5028660;28;20536;-59
2021/04/14 05:37:57;;;;;;;15.52;7.70;;;3.00;91.30;;;;;;5032861;28;20180;-57
2021/04/14 05:40:23;;;;;;;18.85;7.88;;;3.10;91.20;;;;;;5016701;28;20034;-57
2021/04/14 05:42:49;;;;;;;15.40;7.25;;;3.10;91.20;;;;;;5020157;28;20119;-58
2021/04/14 05:45:24;;;;;;;13.70;7.25;;;3.00;91.20;;;;;;5031869;28;20041;-58
2021/04/14 05:47:49;;;;;;;16.48;8.00;;;3.00;91.30;;;;;;5033397;28;20045;-58
2021/04/14 05:50:19;;;;;;;18.05;8.82;;;3.10;91.20;;;;;;5041653;28;20033;-58
2021/04/14 05:52:45;;;;;;;14.90;7.45;;;3.20;91.20;;;;;;5013058;28;20132;-67
2021/04/14 05:55:11;;;;;;;13.75;7.40;;;3.40;90.60;;;;;;5040412;28;20045;-68
2021/04/14 05:57:38;;;;;;;16.05;7.22;;;3.50;90.60;;;;;;5033229;28;20128;-61
2021/04/14 06:00:10;;;;;;;15.57;6.93;;;3.60;90.30;;;;;;5030002;28;20025;-60
2021/04/14 06:02:36;;;;;;;12.15;7.20;;;3.80;90.10;;;;;;5034437;28;20033;-57
2021/04/14 06:05:03;;;;;;;19.20;7.35;;;3.90;89.50;;;;;;5031990;28;20030;-55
2021/04/14 06:07:29;;;;;;;15.80;6.40;;;3.90;89.70;;;;;;5012923;28;20036;-59
2021/04/14 06:09:54;;;;;;;15.57;6.63;;;3.90;89.30;;;;;;5020449;28;20658;-60
2021/04/14 06:12:20;;;;;;;13.63;6.53;;;3.80;89.90;;;;;;5021199;28;20044;-54
2021/04/14 06:14:46;;;;;;;16.27;7.15;;;3.90;90.10;;;;;;5019502;28;20065;-60
2021/04/14 06:17:11;;;;;;;16.08;6.68;;;4.10;89.10;;;;;;5015848;28;20485;-58
2021/04/14 06:19:37;;;;;;;15.05;7.43;;;3.80;90.30;;;;;;5032586;28;20045;-60
2021/04/14 06:22:06;;;;;;;13.48;6.63;;;4.00;89.70;;;;;;5026867;28;20025;-58
2021/04/14 06:24:33;;;;;;;12.73;6.57;;;4.00;89.40;;;;;;5039002;28;20380;-58
2021/04/14 06:27:03;;;;;;;16.08;6.60;;;3.90;89.90;;;;;;5027657;28;20052;-58
2021/04/14 06:29:28;;;;;;;15.13;7.03;;;3.90;90.00;;;;;;5027008;28;20362;-57
2021/04/14 06:31:55;;;;;;;16.50;7.07;;;4.00;89.50;;;;;;5019224;28;20045;-59
2021/04/14 06:34:23;;;;;;;16.90;7.47;;;4.00;89.50;;;;;;5034660;28;20040;-57
2021/04/14 06:36:53;;;;;;;19.33;7.63;;;4.10;89.80;;;;;;5013740;28;20030;-59
2021/04/14 06:39:19;;;;;;;17.00;6.43;;;4.20;89.60;;;;;;5032527;28;20037;-57
2021/04/14 06:44:55;;;;;;;13.40;6.78;;;4.40;88.50;;;;;;5033863;28;20042;-61
2021/04/14 06:47:34;;;;;;;13.90;6.50;;;4.30;89.50;;;;;;5013322;28;20029;-59
2021/04/14 06:50:22;;;;;;;18.83;7.00;;;4.50;88.40;;;;;;5024897;28;20022;-60
2021/04/14 06:52:54;;;;;;;14.40;6.35;;;4.30;88.80;;;;;;5027785;28;20540;-61
2021/04/14 06:55:27;;;;;;;17.77;6.97;;;4.40;88.80;;;;;;5023610;28;20034;-56
2021/04/14 06:58:00;;;;;;;16.45;6.60;;;4.50;88.00;;;;;;5014199;28;20777;-60
2021/04/14 07:00:48;;;;;;;14.70;6.55;;;4.70;88.10;;;;;;5042189;28;21615;-59
2021/04/14 07:03:22;;;;;;;13.55;6.45;;;4.50;88.40;;;;;;5018559;28;20033;-60
2021/04/14 07:06:03;;;;;;;23.05;7.63;;;4.70;87.90;;;;;;5046796;28;20182;-59
2021/04/14 07:08:35;;;;;;;12.35;5.80;;;4.60;88.60;;;;;;5020931;28;20614;-61
2021/04/14 07:11:03;;;;;;;15.27;6.18;;;4.80;88.10;;;;;;5021107;28;20117;-58
2021/04/14 07:13:33;;;;;;;15.68;6.65;;;4.80;87.00;;;;;;5026018;28;20105;-60
2021/04/14 07:16:15;;;;;;;13.32;6.43;;;4.90;87.50;;;;;;5028740;28;20032;-59
2021/04/14 07:18:51;;;;;;;15.00;6.05;;;5.00;87.00;;;;;;5029759;28;20390;-59
2021/04/14 07:21:36;;;;;;;13.95;6.47;;;5.00;87.00;;;;;;5031035;28;20028;-59
2021/04/14 07:24:18;;;;;;;16.95;6.90;;;5.10;87.10;;;;;;5031412;28;20152;-60
2021/04/14 07:26:58;;;;;;;16.67;6.20;;;5.10;85.50;;;;;;5029021;28;20140;-59
2021/04/14 07:29:39;;;;;;;15.98;6.50;;;5.00;86.90;;;;;;5031180;28;20041;-59
2021/04/14 07:32:32;;;;;;;17.67;6.30;;;4.90;87.50;;;;;;5026821;28;20045;-61
2021/04/14 07:35:10;;;;;;;12.25;5.55;;;5.10;86.90;;;;;;5033265;28;20494;-59
2021/04/14 07:37:52;;;;;;;14.95;6.45;;;5.20;85.50;;;;;;5030273;28;20478;-61
2021/04/14 07:40:49;;;;;;;13.52;6.47;;;5.20;85.20;;;;;;5030377;28;20440;-58
2021/04/14 07:43:37;;;;;;;18.73;6.53;;;5.30;84.20;;;;;;5031363;28;20025;-60
2021/04/14 07:46:05;;;;;;;13.45;6.32;;;5.20;85.40;;;;;;5027517;28;20029;-59
2021/04/14 07:48:38;;;;;;;17.38;6.85;;;5.40;85.40;;;;;;5031549;28;20037;-59
2021/04/14 07:51:09;;;;;;;14.27;6.13;;;5.60;84.40;;;;;;5030101;28;20061;-59
2021/04/14 07:53:38;;;;;;;13.02;6.05;;;5.80;83.90;;;;;;5030847;28;20105;-59
2021/04/14 07:56:19;;;;;;;18.40;5.65;;;5.90;82.80;;;;;;5030734;28;20108;-59
2021/04/14 07:58:45;;;;;;;15.18;6.07;;;6.00;81.30;;;;;;5027593;28;20124;-61
2021/04/14 08:01:19;;;;;;;14.23;5.95;;;5.80;83.80;;;;;;5034244;28;20033;-59
2021/04/14 08:03:46;;;;;;;10.43;4.97;;;6.10;84.90;;;;;;5030558;28;20516;-60
2021/04/14 08:06:23;;;;;;;19.00;6.07;;;6.40;80.60;;;;;;5031300;28;20501;-60
2021/04/14 08:08:49;;;;;;;15.82;5.35;;;6.10;79.30;;;;;;5024813;28;20103;-58
2021/04/14 08:11:30;;;;;;;11.25;5.07;;;6.00;79.80;;;;;;5024457;28;20112;-60
2021/04/14 08:14:31;;;;;;;11.57;5.28;;;6.00;79.70;;;;;;5025393;28;20093;-61
2021/04/14 08:17:02;;;;;;;19.95;5.88;;;6.00;79.90;;;;;;5012114;28;20038;-60
2021/04/14 08:19:35;;;;;;;14.00;5.38;;;5.80;80.70;;;;;;5026059;28;20085;-59
2021/04/14 08:22:14;;;;;;;17.67;5.95;;;5.90;81.00;;;;;;5023920;28;20459;-57
2021/04/14 08:24:48;;;;;;;22.77;5.85;;;6.20;78.70;;;;;;5028378;28;20033;-59
2021/04/14 08:27:19;;;;;;;12.48;5.47;;;6.20;79.60;;;;;;5022577;28;20030;-60
2021/04/14 08:30:03;;;;;;;13.30;5.53;;;6.20;79.80;;;;;;5031469;28;20080;-61
2021/04/14 08:32:52;;;;;;;12.70;4.90;;;6.00;78.50;;;;;;5027277;28;20124;-58
2021/04/14 08:35:29;;;;;;;15.23;5.00;;;6.00;80.10;;;;;;5017566;28;20069;-59
2021/04/14 08:38:15;;;;;;;20.05;5.30;;;6.10;79.00;;;;;;5049788;28;20040;-58
2021/04/14 08:40:49;;;;;;;12.77;4.80;;;6.10;80.00;;;;;;5020618;28;20101;-58
2021/04/14 08:43:21;;;;;;;15.88;5.47;;;6.30;79.30;;;;;;5038453;28;20112;-62
2021/04/14 08:45:47;;;;;;;10.02;4.50;;;6.40;79.70;;;;;;5029800;28;20054;-58
2021/04/14 08:48:31;;;;;;;7.60;2.42;;;6.40;76.30;;;;;;5033232;28;20498;-56
2021/04/14 08:51:04;;;;;;;13.75;3.63;;;5.90;74.90;;;;;;5019822;28;20473;-57
2021/04/14 08:53:40;;;;;;;10.20;3.78;;;5.90;76.30;;;;;;5027034;28;20091;-58
2021/04/14 08:56:07;;;;;;;10.40;4.72;;;5.70;78.00;;;;;;5032817;28;20034;-58
2021/04/14 08:58:33;;;;;;;10.90;4.70;;;5.30;82.70;;;;;;5028240;28;20568;-58
2021/04/14 09:00:59;;;;;;;12.00;4.05;;;5.00;83.40;;;;;;5033548;28;20112;-58
2021/04/14 09:03:39;;;;;;;10.05;4.13;;;5.20;83.60;;;;;;5028843;28;20053;-59
2021/04/14 09:06:07;;;;;;;14.90;4.50;;;5.70;81.00;;;;;;5042736;28;20683;-60
2021/04/14 09:08:34;;;;;;;10.73;4.28;;;5.90;79.40;;;;;;5017970;28;20390;-58
2021/04/14 09:11:01;;;;;;;15.05;4.88;;;5.80;81.20;;;;;;5035257;28;20025;-58
2021/04/14 09:13:49;;;;;;;11.70;4.57;;;5.80;82.00;;;;;;5033282;28;20037;-60
2021/04/14 09:16:35;;;;;;;12.40;5.13;;;5.90;81.90;;;;;;5035651;28;20101;-55
2021/04/14 09:19:28;;;;;;;12.20;4.65;;;6.20;81.30;;;;;;5026250;28;20508;-58
2021/04/14 09:22:12;;;;;;;15.32;5.25;;;6.30;80.70;;;;;;5020607;28;20502;-59
2021/04/14 09:24:51;;;;;;;21.48;6.00;;;6.20;80.60;;;;;;5019265;28;20111;-58
2021/04/14 09:27:22;;;;;;;15.52;5.50;;;6.10;81.70;;;;;;5018315;28;20033;-59
2021/04/14 09:29:56;;;;;;;16.33;4.97;;;6.30;81.40;;;;;;5033047;28;20032;-57
2021/04/14 09:32:45;;;;;;;11.88;4.80;;;6.20;78.70;;;;;;5032125;28;20056;-58
2021/04/14 09:35:29;;;;;;;11.02;4.70;;;6.30;76.30;;;;;;5035254;28;20040;-60
2021/04/14 09:38:33;;;;;;;16.17;4.93;;;6.20;75.60;;;;;;5032717;28;20048;-60
2021/04/14 09:41:30;;;;;;;10.55;4.50;;;6.20;78.60;;;;;;5026484;28;20096;-59
2021/04/14 09:44:18;;;;;;;8.73;4.60;;;6.40;76.80;;;;;;5026933;28;20080;-60
2021/04/14 09:47:11;;;;;;;14.13;4.97;;;6.70;74.20;;;;;;5021220;28;20056;-58
2021/04/14 09:49:46;;;;;;;14.63;4.43;;;6.60;75.40;;;;;;5011120;28;20041;-57
2021/04/14 09:52:25;;;;;;;10.27;4.18;;;6.60;74.90;;;;;;5027072;28;20034;-57
2021/04/14 09:54:55;;;;;;;13.60;4.82;;;6.50;74.90;;;;;;5021950;28;20049;-59
2021/04/14 09:57:28;;;;;;;9.48;3.80;;;6.60;75.20;;;;;;5030593;28;20106;-59
2021/04/14 09:59:55;;;;;;;9.98;4.18;;;6.80;73.70;;;;;;5022120;28;20104;-58
2021/04/14 10:02:22;;;;;;;15.10;5.60;;;7.20;73.80;;;;;;5026570;28;20088;-59
2021/04/14 10:04:49;;;;;;;7.50;3.78;;;7.10;75.90;;;;;;5015522;28;20046;-54
2021/04/14 10:07:35;;;;;;;10.30;3.15;;;7.00;74.00;;;;;;5033702;28;20041;-55
2021/04/14 10:10:05;;;;;;;8.48;3.30;;;6.30;71.80;;;;;;5028498;28;20041;-58
2021/04/14 10:12:31;;;;;;;5.22;2.92;;;6.10;73.10;;;;;;5015392;28;20121;-57
2021/04/14 10:15:03;;;;;;;8.25;3.30;;;6.00;73.50;;;;;;5020554;28;20155;-59
2021/04/14 10:17:31;;;;;;;4.90;3.03;;;6.00;72.40;;;;;;5026992;28;20142;-58
2021/04/14 10:20:21;;;;;;;5.43;3.20;;;6.00;70.80;;;;;;5020414;28;20153;-59
2021/04/14 10:22:50;;;;;;;4.22;3.40;;;6.00;70.70;;;;;;5020384;28;20036;-58
2021/04/14 10:25:20;;;;;;;12.15;4.22;;;6.20;70.80;;;;;;5035307;28;20077;-58
2021/04/14 10:27:47;;;;;;;10.40;4.22;;;6.20;71.40;;;;;;5022194;28;20022;-59
2021/04/14 10:30:20;;;;;;;13.77;4.57;;;6.50;72.10;;;;;;5042732;28;20029;-58
2021/04/14 10:32:46;;;;;;;8.38;4.50;;;6.70;71.90;;;;;;5015763;28;20037;-56
2021/04/14 10:35:15;;;;;;;10.52;4.65;;;6.80;72.30;;;;;;5034554;28;20505;-58
2021/04/14 10:37:46;;;;;;;13.57;4.03;;;6.50;72.70;;;;;;5028581;28;20039;-59
2021/04/14 10:40:27;;;;;;;13.32;4.60;;;6.60;72.40;;;;;;5038662;28;20037;-57
2021/04/14 10:42:57;;;;;;;9.65;4.00;;;6.80;71.20;;;;;;5030054;28;20116;-60
2021/04/14 10:45:25;;;;;;;8.68;3.65;;;7.10;70.00;;;;;;5028426;28;20029;-59
2021/04/14 10:47:55;;;;;;;10.57;4.38;;;7.40;68.20;;;;;;5023194;28;20034;-59
2021/04/14 10:50:32;;;;;;;9.23;4.45;;;7.40;68.40;;;;;;5020865;28;20034;-58
2021/04/14 10:53:02;;;;;;;8.65;3.88;;;7.40;68.10;;;;;;5031387;28;20040;-57
2021/04/14 10:55:34;;;;;;;12.85;4.07;;;7.60;66.80;;;;;;5023446;28;20030;-58
2021/04/14 10:58:03;;;;;;;10.90;4.25;;;8.00;65.80;;;;;;5032076;28;20048;-58
2021/04/14 11:00:33;;;;;;;8.85;4.13;;;8.30;65.00;;;;;;5018330;28;20040;-56
2021/04/14 11:03:09;;;;;;;8.60;3.85;;;8.30;65.20;;;;;;5042225;28;20036;-58
2021/04/14 11:05:38;;;;;;;9.77;4.75;;;7.70;67.00;;;;;;5028873;28;20181;-55
2021/04/14 11:08:06;;;;;;;10.23;4.53;;;7.10;70.40;;;;;;5030938;28;20469;-57
2021/04/14 11:10:34;;;;;;;8.50;4.07;;;6.90;73.10;;;;;;5030534;28;20033;-56
2021/04/14 11:13:01;;;;;;;7.90;3.90;;;7.00;73.60;;;;;;5019582;28;20326;-57
2021/04/14 11:15:32;;;;;;;5.15;3.45;;;6.80;74.90;;;;;;5036656;28;20045;-57
2021/04/14 11:18:07;;;;;;;10.70;4.10;;;6.80;73.50;;;;;;5029672;28;20037;-58
2021/04/14 11:20:42;;;;;;;9.60;4.18;;;6.60;73.60;;;;;;5036526;28;20387;-58
2021/04/14 11:23:18;;;;;;;8.90;4.18;;;6.90;72.60;;;;;;5033629;28;20469;-59
2021/04/14 11:25:44;;;;;;;6.22;3.53;;;7.00;71.50;;;;;;5029535;28;20041;-58
2021/04/14 11:28:16;;;;;;;5.07;3.20;;;7.00;71.70;;;;;;5047371;28;20041;-59
2021/04/14 11:30:49;;;;;;;6.13;2.60;;;7.20;69.70;;;;;;5038535;28;20018;-57
2021/04/14 11:33:17;;;;;;;5.07;2.70;;;7.50;67.20;;;;;;5022023;28;20022;-59
2021/04/14 11:35:50;;;;;;;6.30;2.70;;;7.90;64.70;;;;;;5029234;28;20030;-60
2021/04/14 11:38:39;;;;;;;8.95;2.70;;;7.80;64.00;;;;;;5020717;28;20034;-59
2021/04/14 11:41:32;;;;;;;5.88;3.50;;;7.90;65.50;;;;;;5013987;28;20034;-57
2021/04/14 11:43:58;;;;;;;5.78;2.88;;;7.80;66.60;;;;;;5027527;28;20033;-58
2021/04/14 11:46:36;;;;;;;6.47;3.42;;;7.60;66.10;;;;;;5030911;28;20029;-59
2021/04/14 11:49:08;;;;;;;5.80;3.00;;;7.50;65.90;;;;;;5022871;28;20036;-58
2021/04/14 11:51:40;;;;;;;6.47;3.13;;;7.80;64.00;;;;;;5025157;28;20188;-59
2021/04/14 11:54:08;;;;;;;5.93;2.80;;;7.40;65.30;;;;;;5021013;28;20029;-60
2021/04/14 11:56:36;;;;;;;6.50;3.05;;;7.20;63.90;;;;;;5017074;28;20022;-59
2021/04/14 11:59:03;;;;;;;4.63;2.72;;;7.20;65.20;;;;;;5019057;28;20021;-57
2021/04/14 12:01:32;;;;;;;5.38;2.90;;;7.20;66.00;;;;;;5042347;28;20539;-58
2021/04/14 12:04:09;;;;;;;5.25;3.00;;;7.20;67.30;;;;;;5029061;28;20040;-59
2021/04/14 12:06:35;;;;;;;5.07;2.80;;;7.40;66.50;;;;;;5015927;28;20029;-59
2021/04/14 12:09:04;;;;;;;7.57;3.20;;;8.00;67.00;;;;;;5027220;28;20394;-60
2021/04/14 12:11:30;;;;;;;8.55;3.25;;;8.00;63.90;;;;;;5036871;28;20039;-58
2021/04/14 12:13:55;;;;;;;5.85;2.97;;;7.70;65.20;;;;;;5029864;28;20049;-58
2021/04/14 12:16:21;;;;;;;6.60;2.95;;;7.90;65.60;;;;;;5033635;28;20075;-58
2021/04/14 12:18:47;;;;;;;6.22;3.20;;;8.00;65.30;;;;;;5033582;28;20033;-59
2021/04/14 12:21:12;;;;;;;4.78;3.28;;;8.20;65.60;;;;;;5035641;28;20057;-59
2021/04/14 12:23:38;;;;;;;4.93;3.00;;;8.20;66.00;;;;;;5033704;28;20026;-58
2021/04/14 12:26:04;;;;;;;6.80;3.33;;;7.90;66.40;;;;;;5035251;28;20037;-58
2021/04/14 12:28:30;;;;;;;7.05;3.20;;;7.50;67.90;;;;;;5033686;28;20451;-59
2021/04/14 12:30:56;;;;;;;7.75;3.42;;;7.60;68.50;;;;;;5030113;28;20037;-58
2021/04/14 12:33:22;;;;;;;5.25;3.38;;;7.50;69.40;;;;;;5026274;28;20137;-57
2021/04/14 12:35:48;;;;;;;5.75;3.45;;;7.70;69.50;;;;;;5031691;28;20034;-57
2021/04/14 12:38:14;;;;;;;4.60;2.92;;;8.00;68.70;;;;;;5033235;28;20448;-58
2021/04/14 12:40:40;;;;;;;5.40;3.70;;;8.40;67.90;;;;;;5024833;28;20046;-59
2021/04/14 12:43:06;;;;;;;5.70;3.78;;;9.00;66.00;;;;;;5049740;28;20429;-57
2021/04/14 12:45:49;;;;;;;8.68;3.72;;;9.00;65.00;;;;;;5034795;28;20037;-57
2021/04/14 12:48:19;;;;;;;11.07;4.28;;;9.50;63.50;;;;;;5047752;28;20033;-57
2021/04/14 12:51:07;;;;;;;10.70;4.68;;;9.80;62.00;;;;;;5026464;28;20095;-59
2021/04/14 12:53:58;;;;;;;9.02;3.72;;;10.00;61.10;;;;;;5025889;28;20029;-58
2021/04/14 12:56:30;;;;;;;6.55;3.78;;;10.10;59.70;;;;;;5007876;28;20069;-59
2021/04/14 12:59:03;;;;;;;5.60;3.03;;;9.70;58.20;;;;;;5032713;28;20037;-59
2021/04/14 13:01:29;;;;;;;6.53;2.90;;;9.10;58.80;;;;;;5039566;28;20040;-59
2021/04/14 13:04:22;;;;;;;4.32;2.80;;;8.90;58.80;;;;;;5026229;28;20472;-56
2021/04/14 13:06:52;;;;;;;5.00;3.10;;;8.50;58.50;;;;;;5031940;28;20120;-58
2021/04/14 13:09:20;;;;;;;4.28;2.78;;;8.40;58.90;;;;;;5024547;28;20049;-53